Time;durP1;ratioP1;P1;durP2;ratioP2;P2;SDS_P1;SDS_P2;PMS_P1;PMS_P2;Temp;Humidity;BMP_temperature;BMP_pressure;BME280_temperature;BME280_humidity;BME280_pressure;Samples;Min_cycle;Max_cycle;Signal;HPM_P1;HPM_P2
2022/09/28 00:02:13;;;;;;;3.50;2.20;;;;;;;;;;4986547;28;19918;-87
2022/09/28 00:04:39;;;;;;;;;;;;;;;;;;4975967;28;20002;-86
2022/09/28 00:07:04;;;;;;;3.30;2.15;;;;;;;;;;4988374;28;19914;-87
2022/09/28 00:09:29;;;;;;;;;;;;;;;;;;4995568;28;20026;-86
2022/09/28 00:11:56;;;;;;;2.78;1.95;;;;;;;;;;4983610;28;19937;-87
2022/09/28 00:14:21;;;;;;;5.93;3.00;;;;;;;;;;4983063;28;20030;-88
2022/09/28 00:16:47;;;;;;;;;;;;;;;;;;5000820;28;20045;-87
2022/09/28 00:19:13;;;;;;;4.22;3.30;;;;;;;;;;5000179;28;19914;-87
2022/09/28 00:21:38;;;;;;;;;;;;;;;;;;4960065;28;20034;-88
2022/09/28 00:24:18;;;;;;;3.78;3.00;;;;;;;;;;4993960;28;19909;-87
2022/09/28 00:26:51;;;;;;;4.40;3.30;;;;;;;;;;4978164;28;20064;-87
2022/09/28 00:29:21;;;;;;;9.23;3.70;;;;;;;;;;4971997;28;20034;-87
2022/09/28 00:31:46;;;;;;;4.32;3.70;;;;;;;;;;4988484;28;20106;-87
2022/09/28 00:34:12;;;;;;;;;;;;;;;;;;4989340;28;20076;-87
2022/09/28 00:36:37;;;;;;;6.18;3.30;;;;;;;;;;4971491;28;19920;-87
2022/09/28 00:39:04;;;;;;;4.53;3.60;;;;;;;;;;4978668;28;20034;-87
2022/09/28 00:41:29;;;;;;;3.83;3.30;;;;;;;;;;4999453;28;20033;-87
2022/09/28 00:43:55;;;;;;;;;;;;;;;;;;4995644;28;20045;-85
2022/09/28 00:46:30;;;;;;;4.50;3.45;;;;;;;;;;5010399;28;20388;-87
2022/09/28 00:48:57;;;;;;;3.47;2.77;;;;;;;;;;4975447;28;20512;-86
2022/09/28 00:51:23;;;;;;;3.97;3.20;;;;;;;;;;4969749;28;20073;-86
2022/09/28 00:53:48;;;;;;;;;;;;;;;;;;4987398;28;20072;-86
2022/09/28 00:56:16;;;;;;;5.30;3.22;;;;;;;;;;4995209;28;19910;-87
2022/09/28 00:58:43;;;;;;;4.13;3.30;;;;;;;;;;4999481;28;20498;-87
2022/09/28 01:01:08;;;;;;;4.47;3.47;;;;;;;;;;4991707;28;20049;-87
2022/09/28 01:03:34;;;;;;;;;;;;;;;;;;5010117;28;20041;-87
2022/09/28 01:06:01;;;;;;;4.55;3.35;;;;;;;;;;5003560;28;19909;-87
2022/09/28 01:08:26;;;;;;;3.83;2.83;;;;;;;;;;4991531;28;20098;-87
2022/09/28 01:10:52;;;;;;;;;;;;;;;;;;4969968;28;20046;-86
2022/09/28 01:13:18;;;;;;;3.60;2.92;;;;;;;;;;5005113;28;19940;-87
2022/09/28 01:15:44;;;;;;;;;;;;;;;;;;4982499;28;20125;-88
2022/09/28 01:18:12;;;;;;;3.90;2.90;;;;;;;;;;4984950;28;19917;-87
2022/09/28 01:20:59;;;;;;;3.72;2.80;;;;;;;;;;4982401;28;20071;-88
2022/09/28 01:23:43;;;;;;;3.20;2.70;;;;;;;;;;4998447;28;20409;-87
2022/09/28 01:26:12;;;;;;;4.00;2.67;;;;;;;;;;5011334;28;20416;-87
2022/09/28 01:28:37;;;;;;;3.85;2.50;;;;;;;;;;5008866;28;20062;-87
2022/09/28 01:31:04;;;;;;;4.25;2.75;;;;;;;;;;4979624;28;20038;-86
2022/09/28 01:33:29;;;;;;;;;;;;;;;;;;5022515;28;20532;-86
2022/09/28 01:36:11;;;;;;;3.50;2.53;;;;;;;;;;5010739;28;19913;-87
2022/09/28 01:38:47;;;;;;;3.00;2.50;;;;;;;;;;4993127;28;20026;-86
2022/09/28 01:41:13;;;;;;;4.50;2.80;;;;;;;;;;4997685;28;20104;-86
2022/09/28 01:43:38;;;;;;;;;;;;;;;;;;4988037;28;20022;-86
2022/09/28 01:46:05;;;;;;;3.30;2.35;;;;;;;;;;4991487;28;19914;-86
2022/09/28 01:48:32;;;;;;;3.28;2.67;;;;;;;;;;4996849;28;20025;-87
2022/09/28 01:50:59;;;;;;;4.60;2.97;;;;;;;;;;4977395;28;20034;-87
2022/09/28 01:53:24;;;;;;;;;;;;;;;;;;5007133;28;20401;-87
2022/09/28 01:55:53;;;;;;;3.15;2.42;;;;;;;;;;4986982;28;19920;-88
2022/09/28 01:58:21;;;;;;;3.13;2.10;;;;;;;;;;4987188;28;20029;-87
2022/09/28 02:00:50;;;;;;;3.53;2.38;;;;;;;;;;4978415;28;20076;-87
2022/09/28 02:03:17;;;;;;;2.65;2.20;;;;;;;;;;4978099;28;20052;-86
2022/09/28 02:05:56;;;;;;;3.58;2.40;;;;;;;;;;4968019;28;20493;-86
2022/09/28 02:08:32;;;;;;;3.92;2.38;;;;;;;;;;4988943;28;20536;-86
2022/09/28 02:11:17;;;;;;;2.83;2.20;;;;;;;;;;4985068;28;20493;-87
2022/09/28 02:13:44;;;;;;;3.20;2.58;;;;;;;;;;4982323;28;20052;-87
2022/09/28 02:16:30;;;;;;;2.60;2.13;;;;;;;;;;4992880;28;20497;-88
2022/09/28 02:18:56;;;;;;;3.95;2.60;;;;;;;;;;5004217;28;20049;-86
2022/09/28 02:21:21;;;;;;;;;;;;;;;;;;4982995;28;20023;-88
2022/09/28 02:24:10;;;;;;;3.58;2.60;;;;;;;;;;4998836;28;19920;-87
2022/09/28 02:26:38;;;;;;;2.80;2.38;;;;;;;;;;5003959;28;20505;-87
2022/09/28 02:29:04;;;;;;;3.15;2.42;;;;;;;;;;5002611;28;20509;-87
2022/09/28 02:31:29;;;;;;;;;;;;;;;;;;4997900;28;20050;-87
2022/09/28 02:33:55;;;;;;;4.30;2.20;;;;;;;;;;4999307;28;20013;-88
2022/09/28 02:36:20;;;;;;;;;;;;;;;;;;4979931;28;20038;-87
2022/09/28 02:38:46;;;;;;;2.55;2.15;;;;;;;;;;5004646;28;19910;-87
2022/09/28 02:41:11;;;;;;;;;;;;;;;;;;4968591;28;20030;-87
2022/09/28 02:43:40;;;;;;;3.20;2.05;;;;;;;;;;5004618;28;19909;-87
2022/09/28 02:46:15;;;;;;;3.40;2.30;;;;;;;;;;4999458;28;20030;-87
2022/09/28 02:48:46;;;;;;;3.17;2.20;;;;;;;;;;4984112;28;20524;-87
2022/09/28 02:51:19;;;;;;;2.45;1.95;;;;;;;;;;5001775;28;20072;-87
2022/09/28 02:53:45;;;;;;;3.75;2.03;;;;;;;;;;4972618;28;20510;-87
2022/09/28 02:56:10;;;;;;;;;;;;;;;;;;5001160;28;20025;-87
2022/09/28 02:58:42;;;;;;;2.80;1.95;;;;;;;;;;4994280;28;19920;-87
2022/09/28 03:01:08;;;;;;;2.40;1.90;;;;;;;;;;4992440;28;20038;-88
2022/09/28 03:03:33;;;;;;;;;;;;;;;;;;5012638;28;20034;-86
2022/09/28 03:06:00;;;;;;;3.35;2.10;;;;;;;;;;5000765;28;19919;-87
2022/09/28 03:08:38;;;;;;;2.55;2.10;;;;;;;;;;4987137;28;20037;-87
2022/09/28 03:11:16;;;;;;;2.50;2.05;;;;;;;;;;4993445;28;20026;-86
2022/09/28 03:13:45;;;;;;;4.63;2.65;;;;;;;;;;4987248;28;20076;-87
2022/09/28 03:16:11;;;;;;;;;;;;;;;;;;4982725;28;20038;-88
2022/09/28 03:18:37;;;;;;;3.92;2.58;;;;;;;;;;5005626;28;20277;-87
2022/09/28 03:21:03;;;;;;;3.47;2.70;;;;;;;;;;4984972;28;20029;-88
2022/09/28 03:23:28;;;;;;;;;;;;;;;;;;4994357;28;20505;-86
2022/09/28 03:25:54;;;;;;;3.00;2.10;;;;;;;;;;4992228;28;19909;-88
2022/09/28 03:28:20;;;;;;;3.33;2.20;;;;;;;;;;4981315;28;20050;-88
2022/09/28 03:30:46;;;;;;;;;;;;;;;;;;4997251;28;20021;-87
2022/09/28 03:33:13;;;;;;;2.80;2.07;;;;;;;;;;5010342;28;19914;-87
2022/09/28 03:35:38;;;;;;;;;;;;;;;;;;4991085;28;20044;-87
2022/09/28 03:38:04;;;;;;;2.90;2.08;;;;;;;;;;4994278;28;19921;-88
2022/09/28 03:40:31;;;;;;;3.13;2.00;;;;;;;;;;4988736;28;20018;-87
2022/09/28 03:42:58;;;;;;;;;;;;;;;;;;4983748;28;20049;-87
2022/09/28 03:45:24;;;;;;;2.83;2.10;;;;;;;;;;5004708;28;19933;-89
2022/09/28 03:47:51;;;;;;;2.60;1.90;;;;;;;;;;4993858;28;20109;-86
2022/09/28 03:50:17;;;;;;;2.78;1.98;;;;;;;;;;5000569;28;20061;-87
2022/09/28 03:52:43;;;;;;;;;;;;;;;;;;4989822;28;20496;-86
2022/09/28 03:55:09;;;;;;;2.45;1.83;;;;;;;;;;5007463;28;19917;-87
2022/09/28 03:57:35;;;;;;;2.15;1.65;;;;;;;;;;4991545;28;20546;-87
2022/09/28 04:00:01;;;;;;;;;;;;;;;;;;4967913;28;20101;-88
2022/09/28 04:02:27;;;;;;;4.35;2.20;;;;;;;;;;5008358;28;20004;-87
2022/09/28 04:04:52;;;;;;;;;;;;;;;;;;5007686;28;20112;-87
2022/09/28 04:07:18;;;;;;;5.03;2.10;;;;;;;;;;5005247;28;19913;-86
2022/09/28 04:09:44;;;;;;;2.85;2.20;;;;;;;;;;4991668;28;20052;-86
2022/09/28 04:12:09;;;;;;;;;;;;;;;;;;4999325;28;20149;-85
2022/09/28 04:14:35;;;;;;;5.65;2.22;;;;;;;;;;5008172;28;19910;-87
2022/09/28 04:17:04;;;;;;;4.05;2.40;;;;;;;;;;4967922;28;20066;-88
2022/09/28 04:19:30;;;;;;;2.70;2.30;;;;;;;;;;4994593;28;20030;-87
2022/09/28 04:21:56;;;;;;;;;;;;;;;;;;4986346;28;20039;-87
2022/09/28 04:24:21;;;;;;;2.72;2.15;;;;;;;;;;4992431;28;19910;-88
2022/09/28 04:26:47;;;;;;;;;;;;;;;;;;4988636;28;20094;-87
2022/09/28 04:29:15;;;;;;;4.50;2.67;;;;;;;;;;4993689;28;20325;-87
2022/09/28 04:31:51;;;;;;;4.32;3.30;;;;;;;;;;4977746;28;20037;-89
2022/09/28 04:34:19;;;;;;;3.75;2.85;;;;;;;;;;4974505;28;20037;-87
2022/09/28 04:36:45;;;;;;;3.60;3.10;;;;;;;;;;4986948;28;20056;-86
2022/09/28 04:39:10;;;;;;;;;;;;;;;;;;5001361;28;20090;-88
2022/09/28 04:41:35;;;;;;;5.05;3.10;;;;;;;;;;4990315;28;19909;-88
2022/09/28 04:44:01;;;;;;;;;;;;;;;;;;4970818;28;20077;-88
2022/09/28 04:46:26;;;;;;;5.05;3.58;;;;;;;;;;5000915;28;20004;-88
2022/09/28 04:49:12;;;;;;;5.38;4.07;;;;;;;;;;4993344;28;20050;-88
2022/09/28 04:51:51;;;;;;;4.75;3.90;;;;;;;;;;4985906;28;20041;-87
2022/09/28 04:54:17;;;;;;;5.20;4.50;;;;;;;;;;4972410;28;20033;-87
2022/09/28 04:56:42;;;;;;;;;;;;;;;;;;4971473;28;20503;-84
2022/09/28 04:59:08;;;;;;;8.82;3.65;;;;;;;;;;5010761;28;20411;-84
2022/09/28 05:01:36;;;;;;;6.32;3.97;;;;;;;;;;5002317;28;20025;-87
2022/09/28 05:04:20;;;;;;;5.05;3.92;;;;;;;;;;5008432;28;20041;-89
2022/09/28 05:07:03;;;;;;;5.30;3.83;;;;;;;;;;4995322;28;20101;-86
2022/09/28 05:09:28;;;;;;;;;;;;;;;;;;4977780;28;20582;-86
2022/09/28 05:11:54;;;;;;;4.50;3.90;;;;;;;;;;4997013;28;19910;-89
2022/09/28 05:14:23;;;;;;;5.38;4.03;;;;;;;;;;4977059;28;20040;-87
2022/09/28 05:16:50;;;;;;;6.03;3.88;;;;;;;;;;4984611;28;20030;-87
2022/09/28 05:19:38;;;;;;;5.18;4.28;;;;;;;;;;4989478;28;20090;-88
2022/09/28 05:22:05;;;;;;;;;;;;;;;;;;5009883;28;20033;-87
2022/09/28 05:24:45;;;;;;;6.70;4.05;;;;;;;;;;5002033;28;20073;-87
2022/09/28 05:27:11;;;;;;;6.20;4.45;;;;;;;;;;4974911;28;20057;-86
2022/09/28 05:29:36;;;;;;;;;;;;;;;;;;4991241;28;20022;-86
2022/09/28 05:32:31;;;;;;;6.35;4.78;;;;;;;;;;4989314;28;19913;-86
2022/09/28 05:35:12;;;;;;;8.82;4.68;;;;;;;;;;5009360;28;20065;-85
2022/09/28 05:37:44;;;;;;;5.90;5.10;;;;;;;;;;5007054;28;20042;-86
2022/09/28 05:40:09;;;;;;;;;;;;;;;;;;4974878;28;20997;-86
2022/09/28 05:42:36;;;;;;;5.85;5.20;;;;;;;;;;5002793;28;19933;-87
2022/09/28 05:45:02;;;;;;;6.50;5.80;;;;;;;;;;4994727;28;20042;-89
2022/09/28 05:47:45;;;;;;;6.70;5.32;;;;;;;;;;5006037;28;20053;-86
2022/09/28 05:50:14;;;;;;;10.23;7.40;;;;;;;;;;4986188;28;20514;-87
2022/09/28 05:52:42;;;;;;;7.20;5.78;;;;;;;;;;4992127;28;20064;-86
2022/09/28 05:55:08;;;;;;;6.50;5.78;;;;;;;;;;4991071;28;20493;-85
2022/09/28 05:57:34;;;;;;;;;;;;;;;;;;4978207;28;20029;-88
2022/09/28 06:00:00;;;;;;;7.55;6.53;;;;;;;;;;5007156;28;19962;-86
2022/09/28 06:02:26;;;;;;;8.35;6.00;;;;;;;;;;4985459;28;20038;-86
2022/09/28 06:04:52;;;;;;;7.97;6.28;;;;;;;;;;5006925;28;20026;-88
2022/09/28 06:07:18;;;;;;;;;;;;;;;;;;4982049;28;20466;-85
2022/09/28 06:09:43;;;;;;;8.52;6.22;;;;;;;;;;4994290;28;19926;-87
2022/09/28 06:12:16;;;;;;;7.82;6.60;;;;;;;;;;4996771;28;20030;-89
2022/09/28 06:14:47;;;;;;;8.60;6.75;;;;;;;;;;4994656;28;20038;-86
2022/09/28 06:17:14;;;;;;;9.85;7.07;;;;;;;;;;4987559;28;20432;-87
2022/09/28 06:19:43;;;;;;;8.07;7.05;;;;;;;;;;4970723;28;20029;-85
2022/09/28 06:22:28;;;;;;;7.70;6.43;;;;;;;;;;4998897;28;20052;-86
2022/09/28 06:25:01;;;;;;;9.27;6.10;;;;;;;;;;5002608;28;20064;-87
2022/09/28 06:27:26;;;;;;;;;;;;;;;;;;4992389;28;20049;-86
2022/09/28 06:29:52;;;;;;;6.32;5.40;;;;;;;;;;5026485;28;19920;-86
2022/09/28 06:32:18;;;;;;;;;;;;;;;;;;5008349;28;20033;-87
2022/09/28 06:34:46;;;;;;;7.18;5.70;;;;;;;;;;4990063;28;19910;-87
2022/09/28 06:37:11;;;;;;;;;;;;;;;;;;5005902;28;20042;-86
2022/09/28 06:39:37;;;;;;;7.72;6.22;;;;;;;;;;4985379;28;20011;-86
2022/09/28 06:42:04;;;;;;;9.43;6.47;;;;;;;;;;4991223;28;20565;-86
2022/09/28 06:44:51;;;;;;;8.85;5.70;;;;;;;;;;4992249;28;20026;-86
2022/09/28 06:47:42;;;;;;;6.55;5.50;;;;;;;;;;4989267;28;20065;-85
2022/09/28 06:50:20;;;;;;;7.47;5.60;;;;;;;;;;4989796;28;20088;-85
2022/09/28 06:53:06;;;;;;;6.60;5.88;;;;;;;;;;4991202;28;20508;-86
2022/09/28 06:55:47;;;;;;;6.72;5.35;;;;;;;;;;4999698;28;20040;-87
2022/09/28 06:58:14;;;;;;;5.90;5.30;;;;;;;;;;4975724;28;20584;-85
2022/09/28 07:00:40;;;;;;;5.97;5.38;;;;;;;;;;4968865;28;20049;-88
2022/09/28 07:03:05;;;;;;;;;;;;;;;;;;5011030;28;20026;-88
2022/09/28 07:05:52;;;;;;;5.57;4.35;;;;;;;;;;5006217;28;19917;-85
2022/09/28 07:08:35;;;;;;;6.40;5.40;;;;;;;;;;4984077;28;20519;-88
2022/09/28 07:11:28;;;;;;;5.75;4.60;;;;;;;;;;4986219;28;20041;-88
2022/09/28 07:14:23;;;;;;;5.53;4.22;;;;;;;;;;4996049;28;20042;-85
2022/09/28 07:16:49;;;;;;;6.28;4.60;;;;;;;;;;4975950;28;20057;-89
2022/09/28 07:19:15;;;;;;;8.25;6.57;;;;;;;;;;4990803;28;20020;-88
2022/09/28 07:21:42;;;;;;;6.32;5.10;;;;;;;;;;4976796;28;20137;-87
2022/09/28 07:24:13;;;;;;;;;;;;;;;;;;4988648;28;20072;-87
2022/09/28 07:26:56;;;;;;;4.65;4.20;;;;;;;;;;4993811;28;20359;-87
2022/09/28 07:29:35;;;;;;;5.57;4.00;;;;;;;;;;4972867;28;20141;-86
2022/09/28 07:32:36;;;;;;;5.55;4.68;;;;;;;;;;4947045;29;20039;-86
2022/09/28 07:35:21;;;;;;;6.03;4.70;;;;;;;;;;4989343;28;20037;-89
2022/09/28 07:38:01;;;;;;;6.63;5.00;;;;;;;;;;4989155;28;20516;-89
2022/09/28 07:43:15;;;;;;;6.13;4.07;;;;;;;;;;4978362;28;20038;-90
2022/09/28 07:45:42;;;;;;;4.05;3.40;;;;;;;;;;4995389;28;20040;-88
2022/09/28 07:48:08;;;;;;;;;;;;;;;;;;4998755;28;20062;-86
2022/09/28 07:51:06;;;;;;;3.80;3.22;;;;;;;;;;5011157;28;19918;-85
2022/09/28 07:53:37;;;;;;;4.80;3.45;;;;;;;;;;4990170;28;20045;-86
2022/09/28 07:56:16;;;;;;;4.60;3.72;;;;;;;;;;5000372;28;20457;-85
2022/09/28 07:58:50;;;;;;;4.13;3.45;;;;;;;;;;4969084;28;20410;-86
2022/09/28 08:01:41;;;;;;;5.60;4.20;;;;;;;;;;4998558;28;20045;-87
2022/09/28 08:04:09;;;;;;;5.53;4.30;;;;;;;;;;4997406;28;20085;-87
2022/09/28 08:06:36;;;;;;;5.25;4.00;;;;;;;;;;4987082;28;20036;-87
2022/09/28 08:09:03;;;;;;;4.63;3.88;;;;;;;;;;5034969;23;20148;-86
2022/09/28 08:11:48;;;;;;;6.25;3.47;;;;;;;;;;5002544;28;20040;-88
2022/09/28 08:14:33;;;;;;;5.05;4.35;;;;;;;;;;5020299;28;20088;-86
2022/09/28 08:17:14;;;;;;;6.18;5.20;;;;;;;;;;5025865;28;20048;-86
2022/09/28 08:22:31;;;;;;;7.78;6.57;;;;;;;;;;5008413;28;20049;-86
2022/09/28 08:24:58;;;;;;;6.80;5.50;;;;;;;;;;4990162;28;20025;-87
2022/09/28 08:27:27;;;;;;;10.00;6.10;;;;;;;;;;5025940;28;20406;-87
2022/09/28 08:29:53;;;;;;;;;;;;;;;;;;5007553;28;20049;-85
2022/09/28 08:32:38;;;;;;;11.75;7.38;;;;;;;;;;5022503;28;19913;-84
2022/09/28 08:35:30;;;;;;;9.23;6.80;;;;;;;;;;5016339;28;20065;-87
2022/09/28 08:38:17;;;;;;;10.77;7.30;;;;;;;;;;5014058;28;20073;-86
2022/09/28 08:41:10;;;;;;;9.20;6.68;;;;;;;;;;5006053;28;20045;-87
2022/09/28 08:44:00;;;;;;;8.60;6.88;;;;;;;;;;5020827;28;20061;-90
2022/09/28 08:46:51;;;;;;;8.57;6.63;;;;;;;;;;5021298;28;20042;-88
2022/09/28 08:49:52;;;;;;;8.32;6.88;;;;;;;;;;4942133;29;20031;-85
2022/09/28 08:52:37;;;;;;;8.68;6.70;;;;;;;;;;5003667;28;20052;-87
2022/09/28 08:55:38;;;;;;;9.07;7.45;;;;;;;;;;4945406;29;20039;-87
2022/09/28 08:58:05;;;;;;;10.80;8.35;;;;;;;;;;4984372;28;20046;-88
2022/09/28 09:00:47;;;;;;;10.40;8.73;;;;;;;;;;5021667;28;20026;-87
2022/09/28 09:03:21;;;;;;;10.50;8.13;;;;;;;;;;5003979;28;20027;-86
2022/09/28 09:06:06;;;;;;;11.32;8.02;;;;;;;;;;4990219;28;20075;-87
2022/09/28 09:09:12;;;;;;;12.60;10.07;;;;;;;;;;5004276;28;20054;-87
2022/09/28 09:12:03;;;;;;;9.68;7.78;;;;;;;;;;4990820;28;20397;-87
2022/09/28 09:14:29;;;;;;;10.43;7.63;;;;;;;;;;4999283;28;20045;-87
2022/09/28 09:16:59;;;;;;;9.20;7.85;;;;;;;;;;5021969;28;20040;-86
2022/09/28 09:19:47;;;;;;;11.15;7.47;;;;;;;;;;5020700;28;20037;-87
2022/09/28 09:22:27;;;;;;;10.18;7.85;;;;;;;;;;5019063;28;20018;-85
2022/09/28 09:25:14;;;;;;;9.15;7.47;;;;;;;;;;5022466;28;20033;-86
2022/09/28 09:27:43;;;;;;;10.40;7.97;;;;;;;;;;4986040;28;20029;-87
2022/09/28 09:30:16;;;;;;;10.57;7.90;;;;;;;;;;5030518;28;20099;-87
2022/09/28 09:33:06;;;;;;;11.88;7.60;;;;;;;;;;4998144;28;20037;-87
2022/09/28 09:35:40;;;;;;;11.05;6.85;;;;;;;;;;4992297;28;20044;-86
2022/09/28 09:38:40;;;;;;;10.18;7.50;;;;;;;;;;5007698;28;20409;-86
2022/09/28 09:41:43;;;;;;;9.43;7.05;;;;;;;;;;5018073;28;20065;-88
2022/09/28 09:44:27;;;;;;;10.20;7.60;;;;;;;;;;5014439;28;20045;-89
2022/09/28 09:47:14;;;;;;;10.03;7.30;;;;;;;;;;5025207;28;20060;-87
2022/09/28 09:50:01;;;;;;;12.25;7.70;;;;;;;;;;5007731;28;20034;-87
2022/09/28 09:52:28;;;;;;;9.68;6.80;;;;;;;;;;5009428;28;20034;-88
2022/09/28 09:54:53;;;;;;;;;;;;;;;;;;5009198;28;20026;-88
2022/09/28 09:57:38;;;;;;;9.38;6.82;;;;;;;;;;5022937;28;19917;-88
2022/09/28 10:00:14;;;;;;;8.50;6.53;;;;;;;;;;4994316;28;20101;-87
2022/09/28 10:02:46;;;;;;;7.90;5.82;;;;;;;;;;5009591;28;20030;-89
2022/09/28 10:05:26;;;;;;;10.40;6.18;;;;;;;;;;4996315;28;20034;-86
2022/09/28 10:08:07;;;;;;;9.65;6.60;;;;;;;;;;4995571;28;20532;-89
2022/09/28 10:10:38;;;;;;;12.15;7.68;;;;;;;;;;5010744;28;20046;-88
2022/09/28 10:13:10;;;;;;;10.53;7.70;;;;;;;;;;5026303;28;20048;-88
2022/09/28 10:15:36;;;;;;;10.27;8.00;;;;;;;;;;5001911;28;20026;-87
2022/09/28 10:18:13;;;;;;;8.25;6.68;;;;;;;;;;5006782;28;20053;-88
2022/09/28 10:20:57;;;;;;;9.07;7.07;;;;;;;;;;5029756;28;20133;-88
2022/09/28 10:23:56;;;;;;;10.60;7.28;;;;;;;;;;5004725;28;20041;-87
2022/09/28 10:26:35;;;;;;;10.13;6.60;;;;;;;;;;5016819;28;20033;-87
2022/09/28 10:29:03;;;;;;;9.80;6.18;;;;;;;;;;5043069;28;20140;-90
2022/09/28 10:34:17;;;;;;;6.47;5.10;;;;;;;;;;5145934;23;20099;-90
2022/09/28 10:36:45;;;;;;;9.15;5.57;;;;;;;;;;4987285;28;20027;-90
2022/09/28 10:39:25;;;;;;;6.70;5.35;;;;;;;;;;5009872;28;20042;-89
2022/09/28 10:41:51;;;;;;;8.93;6.18;;;;;;;;;;5018727;28;20469;-86
2022/09/28 10:44:19;;;;;;;7.03;5.72;;;;;;;;;;4980693;28;20060;-89
2022/09/28 10:47:07;;;;;;;8.00;6.10;;;;;;;;;;4985009;28;20034;-89
2022/09/28 10:49:42;;;;;;;8.10;6.20;;;;;;;;;;4984107;28;20038;-87
2022/09/28 10:52:28;;;;;;;8.80;6.13;;;;;;;;;;4966742;28;20065;-87
2022/09/28 10:54:54;;;;;;;9.15;5.78;;;;;;;;;;4995963;28;20068;-88
2022/09/28 10:57:34;;;;;;;7.57;5.88;;;;;;;;;;4961248;28;20069;-87
2022/09/28 11:00:12;;;;;;;7.38;5.97;;;;;;;;;;4974009;28;20033;-88
2022/09/28 11:02:56;;;;;;;10.85;5.68;;;;;;;;;;4963537;28;20026;-87
2022/09/28 11:05:23;;;;;;;10.30;5.88;;;;;;;;;;4963749;28;20054;-87
2022/09/28 11:07:54;;;;;;;9.88;6.38;;;;;;;;;;4959401;28;20054;-89
2022/09/28 11:10:27;;;;;;;8.80;6.00;;;;;;;;;;4996160;28;20521;-87
2022/09/28 11:12:57;;;;;;;7.32;5.85;;;;;;;;;;4979142;28;20034;-89
2022/09/28 11:15:26;;;;;;;7.03;5.25;;;;;;;;;;4964670;28;20050;-88
2022/09/28 11:17:52;;;;;;;8.38;5.57;;;;;;;;;;4983829;28;20491;-88
2022/09/28 11:20:19;;;;;;;8.13;4.65;;;;;;;;;;4964075;28;20026;-87
2022/09/28 11:22:47;;;;;;;7.22;4.53;;;;;;;;;;4972954;28;20026;-88
2022/09/28 11:25:15;;;;;;;7.07;5.20;;;;;;;;;;4994578;28;20089;-88
2022/09/28 11:27:41;;;;;;;8.70;5.70;;;;;;;;;;5039644;22;20024;-84
2022/09/28 11:30:07;;;;;;;;;;;;;;;;;;4991415;28;20054;-86
2022/09/28 11:32:45;;;;;;;7.80;5.68;;;;;;;;;;5001935;28;20346;-89
2022/09/28 11:35:19;;;;;;;9.20;5.97;;;;;;;;;;5020111;28;20176;-86
2022/09/28 11:37:52;;;;;;;7.20;4.80;;;;;;;;;;4999124;23;20056;-88
2022/09/28 11:40:54;;;;;;;7.30;4.85;;;;;;;;;;4998600;28;20061;-87
2022/09/28 11:43:19;;;;;;;7.10;4.40;;;;;;;;;;4996810;28;20064;-87
2022/09/28 11:45:45;;;;;;;;;;;;;;;;;;5003022;28;20026;-90
2022/09/28 11:48:12;;;;;;;7.85;4.65;;;;;;;;;;5001443;28;19913;-89
2022/09/28 11:50:41;;;;;;;7.65;4.72;;;;;;;;;;5013498;28;20052;-87
2022/09/28 11:53:12;;;;;;;9.07;4.43;;;;;;;;;;4994351;28;20069;-86
2022/09/28 11:55:41;;;;;;;6.72;4.63;;;;;;;;;;5058670;23;20124;-87
2022/09/28 11:58:21;;;;;;;6.85;4.50;;;;;;;;;;5027645;28;20064;-88
2022/09/28 12:00:49;;;;;;;7.80;5.35;;;;;;;;;;5012924;28;20385;-88
2022/09/28 12:03:21;;;;;;;8.98;5.40;;;;;;;;;;5010469;28;20411;-86
2022/09/28 12:05:48;;;;;;;7.10;4.70;;;;;;;;;;5038629;28;20064;-87
2022/09/28 12:08:16;;;;;;;6.28;4.05;;;;;;;;;;5016674;28;20030;-88
2022/09/28 12:11:20;;;;;;;8.70;4.45;;;;;;;;;;5011060;28;20084;-89
2022/09/28 12:14:22;;;;;;;8.88;5.47;;;;;;;;;;4945844;29;20047;-88
2022/09/28 12:16:49;;;;;;;5.88;4.65;;;;;;;;;;5012906;28;20041;-87
2022/09/28 12:19:20;;;;;;;4.85;3.92;;;;;;;;;;5026541;28;20097;-88
2022/09/28 12:21:50;;;;;;;6.07;3.95;;;;;;;;;;5012480;28;20047;-88
2022/09/28 12:24:21;;;;;;;5.50;3.90;;;;;;;;;;4992959;28;20030;-88
2022/09/28 12:27:02;;;;;;;5.82;4.05;;;;;;;;;;5020449;28;20041;-87
2022/09/28 12:29:42;;;;;;;7.18;4.28;;;;;;;;;;5022223;28;20052;-87
2022/09/28 12:32:14;;;;;;;8.10;4.18;;;;;;;;;;5024887;28;20124;-88
2022/09/28 12:34:40;;;;;;;8.48;4.10;;;;;;;;;;5044549;28;20037;-87
2022/09/28 12:37:20;;;;;;;5.05;3.80;;;;;;;;;;5021284;28;20036;-87
2022/09/28 12:39:52;;;;;;;8.80;3.65;;;;;;;;;;5005774;28;20042;-88
2022/09/28 12:42:43;;;;;;;6.88;4.15;;;;;;;;;;4993870;28;20033;-87
2022/09/28 12:45:08;;;;;;;6.97;5.13;;;;;;;;;;5026917;28;20036;-87
2022/09/28 12:47:34;;;;;;;;;;;;;;;;;;5029893;28;20033;-87
2022/09/28 12:49:59;;;;;;;7.43;4.45;;;;;;;;;;5027425;28;20288;-88
2022/09/28 12:52:26;;;;;;;;;;;;;;;;;;5012111;28;20029;-86
2022/09/28 12:54:52;;;;;;;6.78;4.88;;;;;;;;;;5021364;28;19925;-87
2022/09/28 12:57:17;;;;;;;;;;;;;;;;;;5030981;28;20044;-89
2022/09/28 12:59:46;;;;;;;5.95;4.50;;;;;;;;;;5013907;28;19914;-88
2022/09/28 13:02:30;;;;;;;5.95;4.75;;;;;;;;;;5029505;28;20081;-88
2022/09/28 13:05:15;;;;;;;7.53;4.40;;;;;;;;;;5005853;28;20042;-87
2022/09/28 13:07:46;;;;;;;7.38;4.28;;;;;;;;;;5020450;28;20124;-87
2022/09/28 13:10:15;;;;;;;9.02;5.28;;;;;;;;;;5023179;28;20030;-87
2022/09/28 13:12:47;;;;;;;9.50;5.15;;;;;;;;;;5003846;28;20080;-87
2022/09/28 13:15:33;;;;;;;11.55;5.82;;;;;;;;;;5020905;28;20034;-88
2022/09/28 13:18:07;;;;;;;7.30;5.40;;;;;;;;;;5009732;28;20418;-88
2022/09/28 13:20:39;;;;;;;9.75;5.80;;;;;;;;;;5021421;28;20482;-87
2022/09/28 13:23:24;;;;;;;8.57;5.93;;;;;;;;;;5023065;28;20026;-88
2022/09/28 13:26:10;;;;;;;9.25;6.22;;;;;;;;;;5008132;28;20061;-88
2022/09/28 13:28:36;;;;;;;11.18;6.03;;;;;;;;;;5007241;28;20046;-87
2022/09/28 13:31:02;;;;;;;;;;;;;;;;;;5006078;28;20441;-88
2022/09/28 13:33:35;;;;;;;12.25;6.75;;;;;;;;;;5018710;28;19975;-88
2022/09/28 13:36:04;;;;;;;7.70;5.38;;;;;;;;;;5008594;28;20042;-87
2022/09/28 13:38:50;;;;;;;7.85;5.07;;;;;;;;;;5012209;28;20033;-88
2022/09/28 13:41:17;;;;;;;6.22;4.55;;;;;;;;;;5027369;28;20034;-88
2022/09/28 13:43:49;;;;;;;6.90;4.78;;;;;;;;;;5023490;28;20025;-86
2022/09/28 13:46:32;;;;;;;8.68;4.30;;;;;;;;;;5028950;28;20037;-87
2022/09/28 13:49:06;;;;;;;8.68;4.93;;;;;;;;;;5010472;28;20049;-87
2022/09/28 13:51:55;;;;;;;8.48;4.38;;;;;;;;;;5025134;28;20413;-87
2022/09/28 13:54:21;;;;;;;9.25;4.60;;;;;;;;;;5013603;28;20062;-87
2022/09/28 13:56:48;;;;;;;;;;;;;;;;;;5023894;28;20128;-88
2022/09/28 13:59:26;;;;;;;7.68;4.25;;;;;;;;;;5026520;28;19913;-87
2022/09/28 14:01:55;;;;;;;4.95;3.47;;;;;;;;;;5024562;28;20056;-87
2022/09/28 14:04:21;;;;;;;5.65;3.33;;;;;;;;;;5010755;28;20033;-89
2022/09/28 14:06:53;;;;;;;5.57;3.42;;;;;;;;;;5002837;28;20042;-89
2022/09/28 14:09:23;;;;;;;4.72;3.28;;;;;;;;;;5012453;28;20575;-89
2022/09/28 14:11:54;;;;;;;4.97;3.47;;;;;;;;;;5031620;28;20030;-88
2022/09/28 14:14:19;;;;;;;5.18;3.25;;;;;;;;;;5027361;28;20044;-87
2022/09/28 14:16:45;;;;;;;;;;;;;;;;;;5009204;28;20034;-87
2022/09/28 14:19:12;;;;;;;4.45;3.03;;;;;;;;;;5025484;28;19913;-87
2022/09/28 14:21:43;;;;;;;4.50;2.95;;;;;;;;;;5018191;28;20034;-87
2022/09/28 14:24:20;;;;;;;3.33;2.50;;;;;;;;;;5006573;28;20026;-87
2022/09/28 14:26:46;;;;;;;4.18;2.90;;;;;;;;;;5022707;28;20046;-88
2022/09/28 14:29:11;;;;;;;;;;;;;;;;;;5043639;28;20124;-88
2022/09/28 14:31:39;;;;;;;4.57;3.25;;;;;;;;;;5026464;28;19917;-87
2022/09/28 14:34:06;;;;;;;8.07;4.28;;;;;;;;;;5023523;28;20125;-89
2022/09/28 14:42:20;;;;;;;8.23;4.55;;;;;;;;;;5014176;28;20014;-88
2022/09/28 14:45:00;;;;;;;6.60;3.45;;;;;;;;;;5012185;28;20044;-87
2022/09/28 14:47:32;;;;;;;6.78;4.22;;;;;;;;;;5039089;23;20455;-87
2022/09/28 14:49:59;;;;;;;8.95;3.72;;;;;;;;;;4993325;28;20049;-87
2022/09/28 14:52:42;;;;;;;8.73;4.03;;;;;;;;;;4991020;28;20042;-88
2022/09/28 14:55:12;;;;;;;5.18;4.00;;;;;;;;;;5003657;28;20117;-88
2022/09/28 14:57:37;;;;;;;6.40;4.57;;;;;;;;;;4999056;28;20042;-88
2022/09/28 15:00:03;;;;;;;;;;;;;;;;;;5005769;28;20038;-87
2022/09/28 15:02:30;;;;;;;7.32;4.07;;;;;;;;;;5002999;28;19913;-87
2022/09/28 15:04:58;;;;;;;6.32;3.30;;;;;;;;;;5001128;28;20034;-87
2022/09/28 15:07:45;;;;;;;6.70;3.63;;;;;;;;;;4995482;28;20038;-88
2022/09/28 15:10:11;;;;;;;;;;;;;;;;;;5003441;28;20066;-87
2022/09/28 15:12:36;;;;;;;9.77;4.25;;;;;;;;;;4992724;28;19934;-87
2022/09/28 15:15:03;;;;;;;;;;;;;;;;;;4995540;28;20046;-88
2022/09/28 15:17:29;;;;;;;7.97;4.10;;;;;;;;;;5008320;28;19964;-89
2022/09/28 15:20:16;;;;;;;10.55;4.20;;;;;;;;;;5011239;28;20038;-90
2022/09/28 15:22:48;;;;;;;7.72;4.00;;;;;;;;;;5002470;28;20046;-88
2022/09/28 15:25:18;;;;;;;12.05;4.82;;;;;;;;;;4991313;28;20057;-89
2022/09/28 15:27:44;;;;;;;13.85;7.05;;;;;;;;;;5009771;28;20045;-90
2022/09/28 15:30:09;;;;;;;;;;;;;;;;;;4978236;28;20034;-88
2022/09/28 15:32:35;;;;;;;6.53;4.45;;;;;;;;;;4993731;28;19910;-86
2022/09/28 15:35:00;;;;;;;;;;;;;;;;;;4970560;28;20411;-87
2022/09/28 15:37:27;;;;;;;14.20;7.60;;;;;;;;;;5000090;28;19914;-87
2022/09/28 15:39:52;;;;;;;6.60;4.35;;;;;;;;;;4983485;28;20037;-86
2022/09/28 15:42:18;;;;;;;;;;;;;;;;;;4990459;28;20026;-85
2022/09/28 15:45:04;;;;;;;8.15;5.72;;;;;;;;;;5002391;28;19972;-88
2022/09/28 15:47:32;;;;;;;12.05;5.03;;;;;;;;;;5004314;28;20138;-89